sensor_id;sensor_type;location;lat;lon;timestamp;temperature;humidity
68609;SHT31;55581;46.718;7.690;2022-10-13T00:00:24;12.01;92.40
68609;SHT31;55581;46.718;7.690;2022-10-13T00:02:49;12.14;92.70
68609;SHT31;55581;46.718;7.690;2022-10-13T00:05:15;12.24;92.48
68609;SHT31;55581;46.718;7.690;2022-10-13T00:07:40;12.26;92.49
68609;SHT31;55581;46.718;7.690;2022-10-13T00:10:06;12.28;91.28
68609;SHT31;55581;46.718;7.690;2022-10-13T00:12:38;12.11;91.07
68609;SHT31;55581;46.718;7.690;2022-10-13T00:15:05;11.97;92.22
68609;SHT31;55581;46.718;7.690;2022-10-13T00:17:31;11.87;92.64
68609;SHT31;55581;46.718;7.690;2022-10-13T00:19:59;11.81;92.93
68609;SHT31;55581;46.718;7.690;2022-10-13T00:22:26;11.78;92.88
68609;SHT31;55581;46.718;7.690;2022-10-13T00:24:52;11.69;92.32
68609;SHT31;55581;46.718;7.690;2022-10-13T00:27:18;11.63;92.62
68609;SHT31;55581;46.718;7.690;2022-10-13T00:29:46;11.59;92.86
68609;SHT31;55581;46.718;7.690;2022-10-13T00:32:12;11.53;93.02
68609;SHT31;55581;46.718;7.690;2022-10-13T00:34:37;11.49;92.71
68609;SHT31;55581;46.718;7.690;2022-10-13T00:37:05;11.50;93.21
68609;SHT31;55581;46.718;7.690;2022-10-13T00:39:31;11.47;92.64
68609;SHT31;55581;46.718;7.690;2022-10-13T00:41:57;11.46;92.91
68609;SHT31;55581;46.718;7.690;2022-10-13T00:47:41;11.49;92.80
68609;SHT31;55581;46.718;7.690;2022-10-13T00:50:10;11.52;92.62
68609;SHT31;55581;46.718;7.690;2022-10-13T00:52:38;11.53;92.52
68609;SHT31;55581;46.718;7.690;2022-10-13T00:55:05;11.56;92.43
68609;SHT31;55581;46.718;7.690;2022-10-13T00:57:31;11.59;92.29
68609;SHT31;55581;46.718;7.690;2022-10-13T00:59:57;11.57;91.69
68609;SHT31;55581;46.718;7.690;2022-10-13T01:02:27;11.53;91.47
68609;SHT31;55581;46.718;7.690;2022-10-13T01:04:54;11.47;90.96
68609;SHT31;55581;46.718;7.690;2022-10-13T01:07:22;11.42;90.89
68609;SHT31;55581;46.718;7.690;2022-10-13T01:09:48;11.38;90.56
68609;SHT31;55581;46.718;7.690;2022-10-13T01:15:16;11.30;91.21
68609;SHT31;55581;46.718;7.690;2022-10-13T01:31:45;11.22;92.29
68609;SHT31;55581;46.718;7.690;2022-10-13T01:34:22;11.26;93.31
68609;SHT31;55581;46.718;7.690;2022-10-13T01:37:15;11.35;93.05
68609;SHT31;55581;46.718;7.690;2022-10-13T01:42:23;11.55;93.26
68609;SHT31;55581;46.718;7.690;2022-10-13T01:45:05;11.66;93.35
68609;SHT31;55581;46.718;7.690;2022-10-13T01:47:34;11.50;92.07
68609;SHT31;55581;46.718;7.690;2022-10-13T01:50:03;11.35;92.12
68609;SHT31;55581;46.718;7.690;2022-10-13T01:52:33;11.30;92.43
68609;SHT31;55581;46.718;7.690;2022-10-13T01:55:06;11.22;93.20
68609;SHT31;55581;46.718;7.690;2022-10-13T01:57:41;11.22;92.99
68609;SHT31;55581;46.718;7.690;2022-10-13T02:00:19;11.22;92.34
68609;SHT31;55581;46.718;7.690;2022-10-13T02:06:04;11.11;90.64
68609;SHT31;55581;46.718;7.690;2022-10-13T02:08:36;11.18;91.74
68609;SHT31;55581;46.718;7.690;2022-10-13T02:11:15;11.19;91.56
68609;SHT31;55581;46.718;7.690;2022-10-13T02:14:11;11.15;91.61
68609;SHT31;55581;46.718;7.690;2022-10-13T02:16:41;11.11;91.72
68609;SHT31;55581;46.718;7.690;2022-10-13T02:19:09;11.00;91.69
68609;SHT31;55581;46.718;7.690;2022-10-13T02:21:41;10.98;92.16
68609;SHT31;55581;46.718;7.690;2022-10-13T02:24:07;10.97;92.31
68609;SHT31;55581;46.718;7.690;2022-10-13T02:26:34;10.94;91.89
68609;SHT31;55581;46.718;7.690;2022-10-13T02:29:10;10.92;92.80
68609;SHT31;55581;46.718;7.690;2022-10-13T02:31:36;10.92;93.26
68609;SHT31;55581;46.718;7.690;2022-10-13T02:34:04;10.95;92.63
68609;SHT31;55581;46.718;7.690;2022-10-13T02:36:29;10.92;92.66
68609;SHT31;55581;46.718;7.690;2022-10-13T02:38:57;10.88;92.04
68609;SHT31;55581;46.718;7.690;2022-10-13T02:41:23;10.87;92.69
68609;SHT31;55581;46.718;7.690;2022-10-13T02:43:50;10.85;92.59
68609;SHT31;55581;46.718;7.690;2022-10-13T02:46:16;10.80;93.09
68609;SHT31;55581;46.718;7.690;2022-10-13T02:48:45;10.83;93.17
68609;SHT31;55581;46.718;7.690;2022-10-13T02:51:13;10.78;92.48
68609;SHT31;55581;46.718;7.690;2022-10-13T02:53:39;10.73;92.22
68609;SHT31;55581;46.718;7.690;2022-10-13T02:56:05;10.77;92.21
68609;SHT31;55581;46.718;7.690;2022-10-13T02:58:30;10.73;92.07
68609;SHT31;55581;46.718;7.690;2022-10-13T03:01:07;10.74;92.40
68609;SHT31;55581;46.718;7.690;2022-10-13T03:03:34;10.73;92.50
68609;SHT31;55581;46.718;7.690;2022-10-13T03:06:01;10.70;92.48
68609;SHT31;55581;46.718;7.690;2022-10-13T03:08:27;10.73;92.61
68609;SHT31;55581;46.718;7.690;2022-10-13T03:10:52;10.71;92.69
68609;SHT31;55581;46.718;7.690;2022-10-13T03:13:18;10.66;92.60
68609;SHT31;55581;46.718;7.690;2022-10-13T03:15:44;10.66;92.37
68609;SHT31;55581;46.718;7.690;2022-10-13T03:18:10;10.68;92.21
68609;SHT31;55581;46.718;7.690;2022-10-13T03:20:35;10.64;92.23
68609;SHT31;55581;46.718;7.690;2022-10-13T03:23:01;10.59;92.40
68609;SHT31;55581;46.718;7.690;2022-10-13T03:25:27;10.56;92.22
68609;SHT31;55581;46.718;7.690;2022-10-13T03:27:54;10.49;92.61
68609;SHT31;55581;46.718;7.690;2022-10-13T03:30:21;10.47;92.07
68609;SHT31;55581;46.718;7.690;2022-10-13T03:32:47;10.49;92.69
68609;SHT31;55581;46.718;7.690;2022-10-13T03:35:12;10.49;92.84
68609;SHT31;55581;46.718;7.690;2022-10-13T03:37:40;10.53;92.72
68609;SHT31;55581;46.718;7.690;2022-10-13T03:40:06;10.47;92.86
68609;SHT31;55581;46.718;7.690;2022-10-13T03:42:35;10.49;93.07
68609;SHT31;55581;46.718;7.690;2022-10-13T03:45:01;10.49;93.14
68609;SHT31;55581;46.718;7.690;2022-10-13T03:47:26;10.55;93.10
68609;SHT31;55581;46.718;7.690;2022-10-13T03:49:52;10.53;93.20
68609;SHT31;55581;46.718;7.690;2022-10-13T03:52:19;10.56;93.40
68609;SHT31;55581;46.718;7.690;2022-10-13T03:54:45;10.57;93.38
68609;SHT31;55581;46.718;7.690;2022-10-13T03:57:10;10.61;93.57
68609;SHT31;55581;46.718;7.690;2022-10-13T03:59:38;10.63;93.38
68609;SHT31;55581;46.718;7.690;2022-10-13T04:02:04;10.66;93.19
68609;SHT31;55581;46.718;7.690;2022-10-13T04:04:30;10.67;93.08
68609;SHT31;55581;46.718;7.690;2022-10-13T04:06:55;10.68;93.25
68609;SHT31;55581;46.718;7.690;2022-10-13T04:09:20;10.68;93.53
68609;SHT31;55581;46.718;7.690;2022-10-13T04:11:49;10.70;93.84
68609;SHT31;55581;46.718;7.690;2022-10-13T04:14:15;10.71;94.20
68609;SHT31;55581;46.718;7.690;2022-10-13T04:16:40;10.74;93.95
68609;SHT31;55581;46.718;7.690;2022-10-13T04:19:06;10.78;93.99
68609;SHT31;55581;46.718;7.690;2022-10-13T04:21:33;10.88;94.07
68609;SHT31;55581;46.718;7.690;2022-10-13T04:23:59;10.98;93.55
68609;SHT31;55581;46.718;7.690;2022-10-13T04:26:27;11.01;92.76
68609;SHT31;55581;46.718;7.690;2022-10-13T04:28:54;11.02;92.99
68609;SHT31;55581;46.718;7.690;2022-10-13T04:31:20;11.00;92.99
68609;SHT31;55581;46.718;7.690;2022-10-13T04:33:46;11.10;93.32
68609;SHT31;55581;46.718;7.690;2022-10-13T04:36:13;11.19;93.22
68609;SHT31;55581;46.718;7.690;2022-10-13T04:38:40;11.22;92.97
68609;SHT31;55581;46.718;7.690;2022-10-13T04:41:07;11.36;93.35
68609;SHT31;55581;46.718;7.690;2022-10-13T04:43:33;11.49;92.76
68609;SHT31;55581;46.718;7.690;2022-10-13T04:46:07;11.59;92.27
68609;SHT31;55581;46.718;7.690;2022-10-13T04:48:33;11.73;91.61
68609;SHT31;55581;46.718;7.690;2022-10-13T04:51:05;11.76;91.55
68609;SHT31;55581;46.718;7.690;2022-10-13T04:53:31;11.76;91.29
68609;SHT31;55581;46.718;7.690;2022-10-13T04:56:01;11.70;91.22
68609;SHT31;55581;46.718;7.690;2022-10-13T04:58:27;11.67;91.26
68609;SHT31;55581;46.718;7.690;2022-10-13T05:00:52;11.63;91.51
68609;SHT31;55581;46.718;7.690;2022-10-13T05:03:18;11.69;91.65
68609;SHT31;55581;46.718;7.690;2022-10-13T05:05:46;11.67;92.03
68609;SHT31;55581;46.718;7.690;2022-10-13T05:08:12;11.65;92.05
68609;SHT31;55581;46.718;7.690;2022-10-13T05:10:42;11.63;91.74
68609;SHT31;55581;46.718;7.690;2022-10-13T05:13:07;11.57;91.92
68609;SHT31;55581;46.718;7.690;2022-10-13T05:15:33;11.57;92.13
68609;SHT31;55581;46.718;7.690;2022-10-13T05:17:58;11.59;91.64
68609;SHT31;55581;46.718;7.690;2022-10-13T05:20:25;11.53;91.48
68609;SHT31;55581;46.718;7.690;2022-10-13T05:22:51;11.49;91.67
68609;SHT31;55581;46.718;7.690;2022-10-13T05:25:16;11.43;92.07
68609;SHT31;55581;46.718;7.690;2022-10-13T05:27:43;11.39;92.23
68609;SHT31;55581;46.718;7.690;2022-10-13T05:30:11;11.39;92.17
68609;SHT31;55581;46.718;7.690;2022-10-13T05:32:36;11.38;92.37
68609;SHT31;55581;46.718;7.690;2022-10-13T05:35:02;11.42;92.96
68609;SHT31;55581;46.718;7.690;2022-10-13T05:37:28;11.38;92.62
68609;SHT31;55581;46.718;7.690;2022-10-13T05:39:53;11.39;92.66
68609;SHT31;55581;46.718;7.690;2022-10-13T05:42:18;11.40;93.07
68609;SHT31;55581;46.718;7.690;2022-10-13T05:44:44;11.42;93.93
68609;SHT31;55581;46.718;7.690;2022-10-13T05:47:09;11.47;93.76
68609;SHT31;55581;46.718;7.690;2022-10-13T05:49:39;11.56;93.76
68609;SHT31;55581;46.718;7.690;2022-10-13T05:52:09;11.69;93.11
68609;SHT31;55581;46.718;7.690;2022-10-13T05:54:46;11.74;93.05
68609;SHT31;55581;46.718;7.690;2022-10-13T05:57:19;11.77;92.50
68609;SHT31;55581;46.718;7.690;2022-10-13T06:00:09;11.80;92.98
68609;SHT31;55581;46.718;7.690;2022-10-13T06:02:50;11.78;92.95
68609;SHT31;55581;46.718;7.690;2022-10-13T06:05:18;11.77;92.90
68609;SHT31;55581;46.718;7.690;2022-10-13T06:07:47;11.74;93.21
68609;SHT31;55581;46.718;7.690;2022-10-13T06:10:19;11.71;92.90
68609;SHT31;55581;46.718;7.690;2022-10-13T06:12:44;11.74;92.88
68609;SHT31;55581;46.718;7.690;2022-10-13T06:15:10;11.71;92.64
68609;SHT31;55581;46.718;7.690;2022-10-13T06:17:36;11.77;92.86
68609;SHT31;55581;46.718;7.690;2022-10-13T06:20:03;11.77;92.39
68609;SHT31;55581;46.718;7.690;2022-10-13T06:22:30;11.78;92.34
68609;SHT31;55581;46.718;7.690;2022-10-13T06:25:05;11.77;92.75
68609;SHT31;55581;46.718;7.690;2022-10-13T06:27:31;11.85;92.73
68609;SHT31;55581;46.718;7.690;2022-10-13T06:29:57;12.01;91.87
68609;SHT31;55581;46.718;7.690;2022-10-13T06:32:23;12.10;91.12
68609;SHT31;55581;46.718;7.690;2022-10-13T06:34:51;12.05;91.70
68609;SHT31;55581;46.718;7.690;2022-10-13T06:37:16;12.02;92.09
68609;SHT31;55581;46.718;7.690;2022-10-13T06:39:42;12.08;91.25
68609;SHT31;55581;46.718;7.690;2022-10-13T06:42:08;12.05;91.37
68609;SHT31;55581;46.718;7.690;2022-10-13T06:44:33;12.02;91.51
68609;SHT31;55581;46.718;7.690;2022-10-13T06:46:59;12.08;91.67
68609;SHT31;55581;46.718;7.690;2022-10-13T06:49:27;12.06;91.37
68609;SHT31;55581;46.718;7.690;2022-10-13T06:51:56;12.12;91.56
68609;SHT31;55581;46.718;7.690;2022-10-13T06:54:24;12.21;91.07
68609;SHT31;55581;46.718;7.690;2022-10-13T06:56:49;12.24;90.84
68609;SHT31;55581;46.718;7.690;2022-10-13T06:59:15;12.21;90.89
68609;SHT31;55581;46.718;7.690;2022-10-13T07:01:40;12.21;90.87
68609;SHT31;55581;46.718;7.690;2022-10-13T07:04:08;12.25;91.12
68609;SHT31;55581;46.718;7.690;2022-10-13T07:06:33;12.28;90.88
68609;SHT31;55581;46.718;7.690;2022-10-13T07:09:04;12.36;91.02
68609;SHT31;55581;46.718;7.690;2022-10-13T07:11:40;12.42;91.01
68609;SHT31;55581;46.718;7.690;2022-10-13T07:14:07;12.53;90.73
68609;SHT31;55581;46.718;7.690;2022-10-13T07:16:33;12.61;90.60
68609;SHT31;55581;46.718;7.690;2022-10-13T07:18:58;12.73;90.32
68609;SHT31;55581;46.718;7.690;2022-10-13T07:21:23;12.79;89.19
68609;SHT31;55581;46.718;7.690;2022-10-13T07:23:49;12.76;89.25
68609;SHT31;55581;46.718;7.690;2022-10-13T07:26:15;12.72;89.39
68609;SHT31;55581;46.718;7.690;2022-10-13T07:28:41;12.81;89.55
68609;SHT31;55581;46.718;7.690;2022-10-13T07:31:09;12.88;89.00
68609;SHT31;55581;46.718;7.690;2022-10-13T07:33:36;12.94;87.86
68609;SHT31;55581;46.718;7.690;2022-10-13T07:36:02;13.04;88.45
68609;SHT31;55581;46.718;7.690;2022-10-13T07:38:27;13.12;88.56
68609;SHT31;55581;46.718;7.690;2022-10-13T07:40:53;13.28;88.28
68609;SHT31;55581;46.718;7.690;2022-10-13T07:43:19;13.39;88.49
68609;SHT31;55581;46.718;7.690;2022-10-13T07:45:44;13.53;86.83
68609;SHT31;55581;46.718;7.690;2022-10-13T07:48:10;13.56;86.79
68609;SHT31;55581;46.718;7.690;2022-10-13T07:50:36;13.67;86.93
68609;SHT31;55581;46.718;7.690;2022-10-13T07:53:02;13.66;85.43
68609;SHT31;55581;46.718;7.690;2022-10-13T07:55:29;13.76;85.86
68609;SHT31;55581;46.718;7.690;2022-10-13T07:57:55;13.80;85.16
68609;SHT31;55581;46.718;7.690;2022-10-13T08:00:21;13.74;84.90
68609;SHT31;55581;46.718;7.690;2022-10-13T08:02:49;13.74;84.81
68609;SHT31;55581;46.718;7.690;2022-10-13T08:05:17;13.71;84.89
68609;SHT31;55581;46.718;7.690;2022-10-13T08:07:42;13.63;84.00
68609;SHT31;55581;46.718;7.690;2022-10-13T08:10:08;13.60;84.66
68609;SHT31;55581;46.718;7.690;2022-10-13T08:12:34;13.60;85.71
68609;SHT31;55581;46.718;7.690;2022-10-13T08:15:02;13.62;85.52
68609;SHT31;55581;46.718;7.690;2022-10-13T08:17:28;13.67;84.48
68609;SHT31;55581;46.718;7.690;2022-10-13T08:19:54;13.67;84.43
68609;SHT31;55581;46.718;7.690;2022-10-13T08:22:20;13.67;84.34
68609;SHT31;55581;46.718;7.690;2022-10-13T08:24:45;13.83;83.74
68609;SHT31;55581;46.718;7.690;2022-10-13T08:27:16;13.87;83.61
68609;SHT31;55581;46.718;7.690;2022-10-13T08:29:42;13.96;84.58
68609;SHT31;55581;46.718;7.690;2022-10-13T08:32:08;14.07;83.46
68609;SHT31;55581;46.718;7.690;2022-10-13T08:34:33;14.13;83.11
68609;SHT31;55581;46.718;7.690;2022-10-13T08:37:00;14.22;82.87
68609;SHT31;55581;46.718;7.690;2022-10-13T08:39:26;14.36;82.56
68609;SHT31;55581;46.718;7.690;2022-10-13T08:41:53;14.51;82.00
68609;SHT31;55581;46.718;7.690;2022-10-13T08:44:37;14.63;81.06
68609;SHT31;55581;46.718;7.690;2022-10-13T08:49:39;14.72;80.47
68609;SHT31;55581;46.718;7.690;2022-10-13T08:55:32;14.86;80.77
68609;SHT31;55581;46.718;7.690;2022-10-13T08:57:59;14.97;79.99
68609;SHT31;55581;46.718;7.690;2022-10-13T09:00:26;15.07;80.45
68609;SHT31;55581;46.718;7.690;2022-10-13T09:02:52;15.12;80.87
68609;SHT31;55581;46.718;7.690;2022-10-13T09:05:26;14.97;80.19
68609;SHT31;55581;46.718;7.690;2022-10-13T09:08:00;15.14;80.08
68609;SHT31;55581;46.718;7.690;2022-10-13T09:10:26;15.12;80.43
68609;SHT31;55581;46.718;7.690;2022-10-13T09:12:51;15.30;80.63
68609;SHT31;55581;46.718;7.690;2022-10-13T09:15:17;15.34;80.36
68609;SHT31;55581;46.718;7.690;2022-10-13T09:17:44;15.31;79.38
68609;SHT31;55581;46.718;7.690;2022-10-13T09:20:23;15.30;78.83
68609;SHT31;55581;46.718;7.690;2022-10-13T09:23:01;15.14;78.62
68609;SHT31;55581;46.718;7.690;2022-10-13T09:25:28;15.24;77.96
68609;SHT31;55581;46.718;7.690;2022-10-13T09:27:56;15.24;76.53
68609;SHT31;55581;46.718;7.690;2022-10-13T09:30:42;15.35;77.19
68609;SHT31;55581;46.718;7.690;2022-10-13T09:35:35;15.34;77.45
68609;SHT31;55581;46.718;7.690;2022-10-13T09:40:35;15.51;78.35
68609;SHT31;55581;46.718;7.690;2022-10-13T09:45:52;15.58;75.66
68609;SHT31;55581;46.718;7.690;2022-10-13T09:48:25;15.72;76.10
68609;SHT31;55581;46.718;7.690;2022-10-13T09:50:55;15.65;74.63
68609;SHT31;55581;46.718;7.690;2022-10-13T09:56:52;15.54;73.83
68609;SHT31;55581;46.718;7.690;2022-10-13T09:59:08;15.61;73.33
68609;SHT31;55581;46.718;7.690;2022-10-13T10:01:39;15.66;73.35
68609;SHT31;55581;46.718;7.690;2022-10-13T10:04:21;15.51;74.36
68609;SHT31;55581;46.718;7.690;2022-10-13T10:06:48;15.63;74.59
68609;SHT31;55581;46.718;7.690;2022-10-13T10:12:00;15.91;74.00
68609;SHT31;55581;46.718;7.690;2022-10-13T10:14:37;16.01;74.25
68609;SHT31;55581;46.718;7.690;2022-10-13T10:17:22;16.10;71.98
68609;SHT31;55581;46.718;7.690;2022-10-13T10:20:13;16.13;72.66
68609;SHT31;55581;46.718;7.690;2022-10-13T10:22:51;16.22;69.64
68609;SHT31;55581;46.718;7.690;2022-10-13T10:34:03;16.24;69.54
68609;SHT31;55581;46.718;7.690;2022-10-13T10:45:00;16.07;70.90
68609;SHT31;55581;46.718;7.690;2022-10-13T10:47:36;16.13;68.62
68609;SHT31;55581;46.718;7.690;2022-10-13T10:50:06;16.06;68.82
68609;SHT31;55581;46.718;7.690;2022-10-13T11:01:23;17.39;68.62
68609;SHT31;55581;46.718;7.690;2022-10-13T11:06:36;17.49;67.06
68609;SHT31;55581;46.718;7.690;2022-10-13T11:09:05;17.54;67.16
68609;SHT31;55581;46.718;7.690;2022-10-13T11:11:34;17.87;67.81
68609;SHT31;55581;46.718;7.690;2022-10-13T11:17:15;17.92;65.85
68609;SHT31;55581;46.718;7.690;2022-10-13T11:19:41;17.81;66.16
68609;SHT31;55581;46.718;7.690;2022-10-13T11:22:11;17.83;65.25
68609;SHT31;55581;46.718;7.690;2022-10-13T11:29:53;17.62;68.35
68609;SHT31;55581;46.718;7.690;2022-10-13T11:37:27;17.39;69.04
68609;SHT31;55581;46.718;7.690;2022-10-13T11:53:45;17.81;69.67
68609;SHT31;55581;46.718;7.690;2022-10-13T11:56:30;17.90;68.78
68609;SHT31;55581;46.718;7.690;2022-10-13T11:58:58;17.76;68.20
68609;SHT31;55581;46.718;7.690;2022-10-13T12:01:23;17.61;69.46
68609;SHT31;55581;46.718;7.690;2022-10-13T12:03:48;17.48;69.45
68609;SHT31;55581;46.718;7.690;2022-10-13T12:06:32;17.48;69.76
68609;SHT31;55581;46.718;7.690;2022-10-13T12:09:13;17.42;70.02
68609;SHT31;55581;46.718;7.690;2022-10-13T12:11:40;17.62;69.25
68609;SHT31;55581;46.718;7.690;2022-10-13T12:14:15;17.49;70.38
68609;SHT31;55581;46.718;7.690;2022-10-13T12:16:54;17.69;70.72
68609;SHT31;55581;46.718;7.690;2022-10-13T12:19:23;17.69;69.59
68609;SHT31;55581;46.718;7.690;2022-10-13T12:21:54;17.51;70.51
68609;SHT31;55581;46.718;7.690;2022-10-13T12:24:24;17.83;70.46
68609;SHT31;55581;46.718;7.690;2022-10-13T12:26:53;18.06;70.76
68609;SHT31;55581;46.718;7.690;2022-10-13T12:29:22;17.85;70.03
68609;SHT31;55581;46.718;7.690;2022-10-13T12:31:49;18.04;69.47
68609;SHT31;55581;46.718;7.690;2022-10-13T12:36:55;18.06;69.79
68609;SHT31;55581;46.718;7.690;2022-10-13T12:39:22;18.04;68.95
68609;SHT31;55581;46.718;7.690;2022-10-13T12:41:50;18.12;68.66
68609;SHT31;55581;46.718;7.690;2022-10-13T12:44:21;18.14;69.69
68609;SHT31;55581;46.718;7.690;2022-10-13T12:46:52;18.10;69.14
68609;SHT31;55581;46.718;7.690;2022-10-13T12:49:49;18.23;68.58
68609;SHT31;55581;46.718;7.690;2022-10-13T12:52:24;18.14;70.16
68609;SHT31;55581;46.718;7.690;2022-10-13T12:54:53;18.02;70.36
68609;SHT31;55581;46.718;7.690;2022-10-13T12:57:25;17.95;70.62
68609;SHT31;55581;46.718;7.690;2022-10-13T13:00:01;17.90;71.36
68609;SHT31;55581;46.718;7.690;2022-10-13T13:02:31;17.86;71.26
68609;SHT31;55581;46.718;7.690;2022-10-13T13:04:57;17.89;71.12
68609;SHT31;55581;46.718;7.690;2022-10-13T13:07:37;17.79;71.36
68609;SHT31;55581;46.718;7.690;2022-10-13T13:12:40;17.72;72.00
68609;SHT31;55581;46.718;7.690;2022-10-13T13:17:50;17.66;72.73
68609;SHT31;55581;46.718;7.690;2022-10-13T13:20:30;17.49;73.36
68609;SHT31;55581;46.718;7.690;2022-10-13T13:22:58;17.13;74.15
68609;SHT31;55581;46.718;7.690;2022-10-13T13:25:28;17.10;74.65
68609;SHT31;55581;46.718;7.690;2022-10-13T13:27:53;17.06;74.17
68609;SHT31;55581;46.718;7.690;2022-10-13T13:30:22;17.00;74.42
68609;SHT31;55581;46.718;7.690;2022-10-13T13:32:48;16.93;75.78
68609;SHT31;55581;46.718;7.690;2022-10-13T13:35:14;16.99;75.39
68609;SHT31;55581;46.718;7.690;2022-10-13T13:37:44;17.04;75.75
68609;SHT31;55581;46.718;7.690;2022-10-13T13:40:30;17.03;74.96
68609;SHT31;55581;46.718;7.690;2022-10-13T13:42:55;17.07;75.15
68609;SHT31;55581;46.718;7.690;2022-10-13T13:45:22;17.14;74.81
68609;SHT31;55581;46.718;7.690;2022-10-13T13:47:51;17.24;75.50
68609;SHT31;55581;46.718;7.690;2022-10-13T13:50:20;17.21;74.34
68609;SHT31;55581;46.718;7.690;2022-10-13T13:52:46;17.35;74.47
68609;SHT31;55581;46.718;7.690;2022-10-13T13:55:13;17.39;74.53
68609;SHT31;55581;46.718;7.690;2022-10-13T13:57:40;17.37;73.79
68609;SHT31;55581;46.718;7.690;2022-10-13T14:00:13;17.48;73.96
68609;SHT31;55581;46.718;7.690;2022-10-13T14:02:43;17.54;72.83
68609;SHT31;55581;46.718;7.690;2022-10-13T14:05:09;17.52;73.05
68609;SHT31;55581;46.718;7.690;2022-10-13T14:07:35;17.45;72.70
68609;SHT31;55581;46.718;7.690;2022-10-13T14:10:05;17.39;73.16
68609;SHT31;55581;46.718;7.690;2022-10-13T14:12:31;17.47;72.29
68609;SHT31;55581;46.718;7.690;2022-10-13T14:14:57;17.42;73.50
68609;SHT31;55581;46.718;7.690;2022-10-13T14:17:23;17.32;74.02
68609;SHT31;55581;46.718;7.690;2022-10-13T14:19:49;17.28;74.92
68609;SHT31;55581;46.718;7.690;2022-10-13T14:22:14;17.30;74.20
68609;SHT31;55581;46.718;7.690;2022-10-13T14:24:39;17.38;73.68
68609;SHT31;55581;46.718;7.690;2022-10-13T14:27:05;17.28;75.42
68609;SHT31;55581;46.718;7.690;2022-10-13T14:29:33;17.23;75.96
68609;SHT31;55581;46.718;7.690;2022-10-13T14:31:58;17.20;76.10
68609;SHT31;55581;46.718;7.690;2022-10-13T14:34:24;17.10;74.85
68609;SHT31;55581;46.718;7.690;2022-10-13T14:36:49;17.03;77.43
68609;SHT31;55581;46.718;7.690;2022-10-13T14:39:15;17.02;76.11
68609;SHT31;55581;46.718;7.690;2022-10-13T14:41:41;17.07;76.32
68609;SHT31;55581;46.718;7.690;2022-10-13T14:44:10;17.03;75.95
68609;SHT31;55581;46.718;7.690;2022-10-13T14:46:36;17.09;76.18
68609;SHT31;55581;46.718;7.690;2022-10-13T14:49:01;17.11;76.05
68609;SHT31;55581;46.718;7.690;2022-10-13T14:51:27;17.00;75.77
68609;SHT31;55581;46.718;7.690;2022-10-13T14:53:52;16.99;76.44
68609;SHT31;55581;46.718;7.690;2022-10-13T14:56:25;16.94;75.96
68609;SHT31;55581;46.718;7.690;2022-10-13T14:58:56;16.90;76.93
68609;SHT31;55581;46.718;7.690;2022-10-13T15:01:21;16.92;77.88
68609;SHT31;55581;46.718;7.690;2022-10-13T15:03:47;16.80;79.74
68609;SHT31;55581;46.718;7.690;2022-10-13T15:06:16;16.79;79.84
68609;SHT31;55581;46.718;7.690;2022-10-13T15:08:44;16.75;79.55
68609;SHT31;55581;46.718;7.690;2022-10-13T15:11:12;16.54;80.40
68609;SHT31;55581;46.718;7.690;2022-10-13T15:13:38;16.47;81.47
68609;SHT31;55581;46.718;7.690;2022-10-13T15:16:07;16.38;80.97
68609;SHT31;55581;46.718;7.690;2022-10-13T15:18:36;16.34;80.79
68609;SHT31;55581;46.718;7.690;2022-10-13T15:21:02;16.22;80.77
68609;SHT31;55581;46.718;7.690;2022-10-13T15:23:29;16.20;81.36
68609;SHT31;55581;46.718;7.690;2022-10-13T15:25:56;16.16;81.42
68609;SHT31;55581;46.718;7.690;2022-10-13T15:28:26;16.04;82.67
68609;SHT31;55581;46.718;7.690;2022-10-13T15:30:51;16.13;81.61
68609;SHT31;55581;46.718;7.690;2022-10-13T15:33:17;16.21;81.48
68609;SHT31;55581;46.718;7.690;2022-10-13T15:35:46;16.25;81.07
68609;SHT31;55581;46.718;7.690;2022-10-13T15:38:14;16.28;81.04
68609;SHT31;55581;46.718;7.690;2022-10-13T15:40:40;16.35;81.49
68609;SHT31;55581;46.718;7.690;2022-10-13T15:43:06;16.40;80.67
68609;SHT31;55581;46.718;7.690;2022-10-13T15:45:34;16.44;80.94
68609;SHT31;55581;46.718;7.690;2022-10-13T15:48:00;16.41;81.51
68609;SHT31;55581;46.718;7.690;2022-10-13T15:50:25;16.20;82.74
68609;SHT31;55581;46.718;7.690;2022-10-13T15:52:51;16.17;82.15
68609;SHT31;55581;46.718;7.690;2022-10-13T15:55:17;16.04;82.05
68609;SHT31;55581;46.718;7.690;2022-10-13T15:57:43;15.97;83.06
68609;SHT31;55581;46.718;7.690;2022-10-13T16:00:13;15.93;83.00
68609;SHT31;55581;46.718;7.690;2022-10-13T16:02:39;15.93;82.92
68609;SHT31;55581;46.718;7.690;2022-10-13T16:05:06;15.94;82.58
68609;SHT31;55581;46.718;7.690;2022-10-13T16:07:34;15.87;83.05
68609;SHT31;55581;46.718;7.690;2022-10-13T16:10:01;15.82;83.25
68609;SHT31;55581;46.718;7.690;2022-10-13T16:12:29;15.79;83.00
68609;SHT31;55581;46.718;7.690;2022-10-13T16:14:55;15.73;83.09
68609;SHT31;55581;46.718;7.690;2022-10-13T16:17:21;15.61;83.90
68609;SHT31;55581;46.718;7.690;2022-10-13T16:19:47;15.56;84.69
68609;SHT31;55581;46.718;7.690;2022-10-13T16:22:13;15.54;84.81
68609;SHT31;55581;46.718;7.690;2022-10-13T16:24:39;15.48;84.86
68609;SHT31;55581;46.718;7.690;2022-10-13T16:27:05;15.44;84.65
68609;SHT31;55581;46.718;7.690;2022-10-13T16:29:30;15.41;84.94
68609;SHT31;55581;46.718;7.690;2022-10-13T16:31:56;15.38;85.31
68609;SHT31;55581;46.718;7.690;2022-10-13T16:34:25;15.36;85.20
68609;SHT31;55581;46.718;7.690;2022-10-13T16:36:50;15.25;86.09
68609;SHT31;55581;46.718;7.690;2022-10-13T16:39:15;15.25;85.71
68609;SHT31;55581;46.718;7.690;2022-10-13T16:41:41;15.27;86.01
68609;SHT31;55581;46.718;7.690;2022-10-13T16:44:06;15.27;86.29
68609;SHT31;55581;46.718;7.690;2022-10-13T16:46:32;15.18;86.27
68609;SHT31;55581;46.718;7.690;2022-10-13T16:48:58;15.18;86.30
68609;SHT31;55581;46.718;7.690;2022-10-13T16:51:26;15.23;86.01
68609;SHT31;55581;46.718;7.690;2022-10-13T16:53:56;15.23;85.91
68609;SHT31;55581;46.718;7.690;2022-10-13T16:56:23;15.25;86.43
68609;SHT31;55581;46.718;7.690;2022-10-13T16:58:55;15.25;87.43
68609;SHT31;55581;46.718;7.690;2022-10-13T17:01:22;15.23;87.08
68609;SHT31;55581;46.718;7.690;2022-10-13T17:03:48;15.20;87.64
68609;SHT31;55581;46.718;7.690;2022-10-13T17:06:19;15.16;87.93
68609;SHT31;55581;46.718;7.690;2022-10-13T17:08:45;15.11;88.05
68609;SHT31;55581;46.718;7.690;2022-10-13T17:11:16;15.06;88.41
68609;SHT31;55581;46.718;7.690;2022-10-13T17:13:45;15.03;89.04
68609;SHT31;55581;46.718;7.690;2022-10-13T17:16:12;14.93;88.71
68609;SHT31;55581;46.718;7.690;2022-10-13T17:18:41;14.89;89.00
68609;SHT31;55581;46.718;7.690;2022-10-13T17:21:13;14.87;90.21
68609;SHT31;55581;46.718;7.690;2022-10-13T17:23:39;14.83;90.19
68609;SHT31;55581;46.718;7.690;2022-10-13T17:26:08;14.83;89.68